WetterOnline ( https://www.wetteronline.at )

Wetter aktuell Rostock

Aktuelles Wetter: Rostock-Warnemünde (10m)

6-stündlich | Neueste Meldungen
Ortszeit Temperatur Wetter
Sa, 20.07. 20:00 -° C leichter Regen
Sa, 20.07. 14:00 27.5° C wolkig
Sa, 20.07. 8:00 18.2° C bedeckt
Sa, 20.07. 2:00 16.9° C bedeckt
Fr, 19.07. 20:00 19.5° C fast wolkenlos
Fr, 19.07. 14:00 20.6° C wolkig
Fr, 19.07. 8:00 19.2° C bewölkt
Fr, 19.07. 2:00 18.9° C wolkig
Ortszeit Temperatur Wetter
Sa, 20.07. 23:30 17.4° C leichter Regen
Sa, 20.07. 23:20 17.4° C leichter Regen
Sa, 20.07. 23:10 17.4° C Regen
Sa, 20.07. 23:00 17.5° C Regen
Sa, 20.07. 22:50 17.5° C Regen
Sa, 20.07. 22:40 17.6° C leichter Regen
Sa, 20.07. 22:30 17.7° C wolkig
Sa, 20.07. 22:00 17.6° C bedeckt
Sa, 20.07. 21:30 17.8° C wolkig
Sa, 20.07. 21:00 17.8° C Regen
Sa, 20.07. 20:30 17.6° C leichter Regen
Ortszeit Relative Feuchte Sichtweite
Sa, 20.07. 20:00 - 12 km
Sa, 20.07. 14:00 40% 30 km
Sa, 20.07. 8:00 79% 12 km
Sa, 20.07. 2:00 88% 6 km
Fr, 19.07. 20:00 82% 14 km
Fr, 19.07. 14:00 74% 10 km
Fr, 19.07. 8:00 58% 45 km
Fr, 19.07. 2:00 67% 50 km
Ortszeit Relative Feuchte Sichtweite
Sa, 20.07. 23:30 92% 9 km
Sa, 20.07. 23:20 92% -
Sa, 20.07. 23:10 93% -
Sa, 20.07. 23:00 93% 5.0 km
Sa, 20.07. 22:50 93% -
Sa, 20.07. 22:40 94% -
Sa, 20.07. 22:30 92% 35 km
Sa, 20.07. 22:00 93% 30 km
Sa, 20.07. 21:30 90% 45 km
Sa, 20.07. 21:00 92% 6 km
Sa, 20.07. 20:30 92% 7 km
Ortszeit Niederschlagsmenge Niederschlagsart
Sa, 20.07. 20:00 5 l/m2 in 12 Std. Regenschauer
Sa, 20.07. 14:00 0.0 l/m2 in 6 Std. -
Sa, 20.07. 8:00 0.0 l/m2 in 12 Std. -
Sa, 20.07. 2:00 0.0 l/m2 in 6 Std. -
Fr, 19.07. 20:00 0.1 l/m2 in 12 Std. -
Fr, 19.07. 14:00 0.1 l/m2 in 6 Std. Regen
Fr, 19.07. 8:00 0.0 l/m2 in 12 Std. -
Fr, 19.07. 2:00 0.0 l/m2 in 6 Std. -
Ortszeit Niederschlagsmenge Niederschlagsart
Sa, 20.07. 23:30 1.5 l/m2 in 1 Std. -
Sa, 20.07. 23:20 keine Meldung -
Sa, 20.07. 23:10 keine Meldung -
Sa, 20.07. 23:00 0.3 l/m2 in 1 Std. Regen
Sa, 20.07. 22:50 keine Meldung -
Sa, 20.07. 22:40 keine Meldung -
Sa, 20.07. 22:30 0.1 l/m2 in 1 Std. Schneeregen
Sa, 20.07. 22:00 0.3 l/m2 in 1 Std. Regen
Sa, 20.07. 21:30 0.3 l/m2 in 1 Std. Schneeregen
Sa, 20.07. 21:00 2.1 l/m2 in 1 Std. Regen
Sa, 20.07. 20:30 1.2 l/m2 in 1 Std. -
Ortszeit Stärke Spitze Richtung
km/h Bft. km/h Grad Sektor
Sa, 20.07. 20:00 18 3 68 250° W
Sa, 20.07. 14:00 14 3 36 150° SO
Sa, 20.07. 8:00 11 2 18 150° SO
Sa, 20.07. 2:00 6 1 13 230° SW
Fr, 19.07. 20:00 4 1 18 320° NW
Fr, 19.07. 14:00 7 2 25 320° NW
Fr, 19.07. 8:00 9 2 20 170° S
Fr, 19.07. 2:00 14 3 25 140° SO
Ortszeit Stärke Spitze Richtung
km/h Bft. km/h Grad Sektor
Sa, 20.07. 23:30 11 2 25 180° S
Sa, 20.07. 23:20 11 2 - 180° S
Sa, 20.07. 23:10 13 3 - 180° S
Sa, 20.07. 23:00 14 3 29 170° S
Sa, 20.07. 22:50 14 3 - 170° S
Sa, 20.07. 22:40 14 3 - 170° S
Sa, 20.07. 22:30 11 2 18 160° S
Sa, 20.07. 22:00 9 2 19 170° S
Sa, 20.07. 21:30 11 2 18 160° S
Sa, 20.07. 21:00 7 2 25 150° SO
Sa, 20.07. 20:30 7 2 25 330° NW
Ortszeit Untergrenze Bedeckung Gattung
total tief tief mittel hoch
Sa, 20.07. 20:00 840 m 7/8 7/8 - - -
Sa, 20.07. 14:00 1500 m 7/8 1/8 - - -
Sa, 20.07. 8:00 4800 m 8/8 8/8 - - -
Sa, 20.07. 2:00 4800 m 8/8 8/8 - - -
Fr, 19.07. 20:00 7800 m 2/8 0/8 - - -
Fr, 19.07. 14:00 2700 m 7/8 5/8 - - -
Fr, 19.07. 8:00 3900 m 8/8 6/8 - - -
Fr, 19.07. 2:00 2100 m 8/8 1/8 - - -
Ortszeit Bedeckungsgrad in Achtel und Wolkenuntergrenze
Sa, 20.07. 23:30 8(3000m)
Sa, 20.07. 23:20 8(3000m)
Sa, 20.07. 23:10 8(3000m)
Sa, 20.07. 23:00 7(3000m)
Sa, 20.07. 22:50 7(3000m)
Sa, 20.07. 22:40 7(3000m)
Sa, 20.07. 22:30 1(2100m) 8(3000m)
Sa, 20.07. 22:00 7(3300m) 8(5400m) 8(7200m)
Sa, 20.07. 21:30 2(3900m) 7(7200m) 7(8700m)
Sa, 20.07. 21:00 1(2100m) 7(3000m) 8(7200m)
Sa, 20.07. 20:30 8(2700m)
Ortszeit Luftdruck NN (hPa) Tendenz (hPa in 3 Std.)
Sa, 20.07. 20:00 1013 + 2,2
Sa, 20.07. 14:00 1013 - 1,3
Sa, 20.07. 8:00 1014 - 0,3
Sa, 20.07. 2:00 1015 + 0,2
Fr, 19.07. 20:00 1014 + 0,4
Fr, 19.07. 14:00 1013 + 0,9
Fr, 19.07. 8:00 1011 - 0,2
Fr, 19.07. 2:00 1012 0,0
Ortszeit Luftdruck NN (hPa) Tendenz (hPa in 3 Std.)
Sa, 20.07. 23:30 1013 + 1,1
Sa, 20.07. 23:20 1013 keine Meldung
Sa, 20.07. 23:10 1013 keine Meldung
Sa, 20.07. 23:00 1013 + 0,6
Sa, 20.07. 22:50 1013 keine Meldung
Sa, 20.07. 22:40 1013 keine Meldung
Sa, 20.07. 22:30 1013 + 0,4
Sa, 20.07. 22:00 1013 + 3,1
Sa, 20.07. 21:30 1013 + 2,2
Sa, 20.07. 21:00 1013 + 2,0
Sa, 20.07. 20:30 1012 + 1,5
Ortszeit Schneehöhe (cm)
Sa, 20.07. 20:00 -
Sa, 20.07. 14:00 -
Sa, 20.07. 8:00 -
Sa, 20.07. 2:00 -
Fr, 19.07. 20:00 -
Fr, 19.07. 14:00 -
Fr, 19.07. 8:00 -
Fr, 19.07. 2:00 -
Ortszeit Schneehöhe (cm)
Sa, 20.07. 23:30 -
Sa, 20.07. 23:20 -
Sa, 20.07. 23:10 -
Sa, 20.07. 23:00 -
Sa, 20.07. 22:50 -
Sa, 20.07. 22:40 -
Sa, 20.07. 22:30 -
Sa, 20.07. 22:00 -
Sa, 20.07. 21:30 -
Sa, 20.07. 21:00 -
Sa, 20.07. 20:30 -
Link zu dieser Seite / Seite empfehlen

Das Wetter in ...